Terminal Aerodrome Forecast
Issued by NWS

Home | Current Version | Previous Version | Text Only | Print | Product List | Glossary On
Versions: 1 2 3 4 5 6 7 8 9 10 11 12 13 14 15 16 17 18 19 20 21 22 23 24 25 26 27 28 29 30 31 32 33 34 35 36 37 38 39 40 41 42
588
FTUS43 KGRB 260528
TAFATW
TAF
KATW 260528Z 2606/2706 19007KT P6SM SCT060 BKN090 WS020/23035KT
     FM260900 20007KT P6SM BKN060 WS020/24035KT
     FM261200 20008KT P6SM VCSH SCT040 BKN060
     FM261500 23009KT 6SM -TSRA BKN035CB
     FM261800 23008KT P6SM BKN035 BKN100
     FM270100 25004KT P6SM BKN120=

USA.gov is the U.S. government's official web portal to all federal, state and local government web resources and services.